Search METAR Data

METAR Data for ENBL:

ENBL 220350Z VRB02KT CAVOK 15/05 Q1018